Time;durP1;ratioP1;P1;durP2;ratioP2;P2;SDS_P1;SDS_P2;PMS_P1;PMS_P2;Temp;Humidity;BMP_temperature;BMP_pressure;BME280_temperature;BME280_humidity;BME280_pressure;Samples;Min_cycle;Max_cycle;Signal;HPM_P1;HPM_P2
2021/06/26 00:01:28;;;;;;;10.50;8.52;;;;;;;15.17;91.96;99331.03;5094356;28;20109;-78
2021/06/26 00:03:55;;;;;;;10.75;7.80;;;;;;;15.10;92.13;99311.88;5101011;28;20407;-78
2021/06/26 00:06:24;;;;;;;11.07;7.95;;;;;;;15.13;93.06;99327.03;5093573;28;20067;-78
2021/06/26 00:08:51;;;;;;;10.88;8.10;;;;;;;15.06;93.78;99317.97;5095541;28;20076;-78
2021/06/26 00:11:18;;;;;;;16.55;8.88;;;;;;;14.99;94.34;99307.84;5102435;28;20402;-78
2021/06/26 00:13:45;;;;;;;12.07;8.27;;;;;;;15.20;92.35;99315.03;5112927;28;20043;-78
2021/06/26 00:16:12;;;;;;;10.32;8.07;;;;;;;15.27;92.07;99327.88;5092621;28;20052;-78
2021/06/26 00:18:39;;;;;;;12.05;8.40;;;;;;;15.10;91.82;99309.13;5093306;28;20101;-78
2021/06/26 00:21:06;;;;;;;12.45;7.82;;;;;;;15.02;93.31;99318.41;5093187;28;20062;-78
2021/06/26 00:23:34;;;;;;;15.40;8.73;;;;;;;14.94;93.94;99321.34;5096293;28;20047;-78
2021/06/26 00:26:01;;;;;;;12.82;8.02;;;;;;;15.03;94.04;99317.34;5112626;28;20066;-78
2021/06/26 00:28:27;;;;;;;17.00;8.40;;;;;;;14.92;93.63;99300.69;5092665;28;20488;-78
2021/06/26 00:30:54;;;;;;;11.25;8.32;;;;;;;15.23;92.94;99319.22;5078142;28;20418;-78
2021/06/26 00:33:21;;;;;;;16.52;8.85;;;;;;;15.27;92.49;99306.81;5092115;28;20044;-78
2021/06/26 00:35:48;;;;;;;18.08;10.27;;;;;;;15.34;93.13;99315.00;5107108;28;20063;-78
2021/06/26 00:38:15;;;;;;;14.05;8.23;;;;;;;15.10;92.85;99289.97;5112529;28;20051;-78
2021/06/26 00:40:43;;;;;;;13.07;8.30;;;;;;;15.35;92.15;99313.94;5108769;28;20054;-78
2021/06/26 00:43:10;;;;;;;10.70;8.68;;;;;;;15.09;93.38;99295.66;5112938;28;20048;-78
2021/06/26 00:45:37;;;;;;;12.20;8.63;;;;;;;15.06;94.26;99293.34;5102588;28;20055;-78
2021/06/26 00:48:04;;;;;;;10.70;8.05;;;;;;;15.18;94.33;99314.38;5109215;28;20044;-78
2021/06/26 00:50:31;;;;;;;21.15;10.88;;;;;;;15.33;93.74;99305.94;5092730;28;20093;-78
2021/06/26 00:52:58;;;;;;;15.70;8.32;;;;;;;15.22;92.65;99282.78;5112719;28;20721;-78
2021/06/26 00:55:25;;;;;;;12.60;8.60;;;;;;;15.27;91.95;99279.41;5101884;28;20048;-78
2021/06/26 00:57:56;;;;;;;13.05;9.07;;;;;;;15.28;92.96;99280.25;5104311;28;20044;-79
2021/06/26 01:00:24;;;;;;;11.48;8.13;;;;;;;15.22;93.15;99279.22;5102499;28;20052;-78
2021/06/26 01:02:51;;;;;;;12.50;8.32;;;;;;;15.25;93.41;99288.88;5100032;28;20097;-78
2021/06/26 01:05:18;;;;;;;9.75;7.85;;;;;;;15.13;94.45;99278.59;5106403;28;20100;-78
2021/06/26 01:07:46;;;;;;;12.07;7.57;;;;;;;15.11;94.94;99288.91;5102714;28;20047;-78
2021/06/26 01:10:13;;;;;;;11.88;8.18;;;;;;;14.99;95.24;99279.63;5092618;28;20146;-78
2021/06/26 01:12:41;;;;;;;18.80;10.05;;;;;;;15.04;94.92;99277.97;5092646;28;20059;-78
2021/06/26 01:15:11;;;;;;;15.20;9.10;;;;;;;15.10;94.28;99275.41;5091304;28;20094;-78
2021/06/26 01:17:38;;;;;;;14.60;8.15;;;;;;;14.96;94.69;99255.44;5088693;28;20052;-78
2021/06/26 01:20:08;;;;;;;20.58;9.18;;;;;;;15.15;95.00;99273.75;5092035;28;20564;-78
2021/06/26 01:22:42;;;;;;;11.90;9.50;;;;;;;15.20;94.52;99273.09;5104980;28;20051;-78
2021/06/26 01:25:11;;;;;;;13.00;9.30;;;;;;;15.20;94.05;99275.84;5093050;28;20048;-78
2021/06/26 01:27:38;;;;;;;12.20;8.88;;;;;;;15.17;93.98;99255.19;5092106;28;20454;-78
2021/06/26 01:30:06;;;;;;;11.20;8.82;;;;;;;15.31;93.85;99264.25;5094150;28;20040;-78
2021/06/26 01:32:33;;;;;;;15.32;9.38;;;;;;;15.42;92.99;99273.69;5096777;28;20075;-78
2021/06/26 01:34:59;;;;;;;13.63;9.55;;;;;;;15.37;92.37;99279.81;5086421;28;20047;-78
2021/06/26 01:37:26;;;;;;;13.65;9.40;;;;;;;15.29;92.43;99270.97;5106290;28;20658;-78
2021/06/26 01:39:54;;;;;;;12.95;9.10;;;;;;;15.10;93.10;99242.56;5097221;28;20518;-78
2021/06/26 01:42:21;;;;;;;20.90;9.00;;;;;;;15.18;93.93;99276.03;5091857;28;20105;-78
2021/06/26 01:44:48;;;;;;;12.27;9.75;;;;;;;15.24;94.41;99262.56;5090540;28;20048;-78
2021/06/26 01:47:15;;;;;;;15.82;10.20;;;;;;;15.31;93.92;99266.13;5092764;28;20047;-78
2021/06/26 01:49:42;;;;;;;14.27;9.63;;;;;;;15.34;93.54;99272.03;5091874;28;20056;-78
2021/06/26 01:52:09;;;;;;;14.75;9.27;;;;;;;15.38;93.93;99276.00;5084451;28;20049;-78
2021/06/26 01:54:36;;;;;;;10.88;9.00;;;;;;;15.21;94.86;99250.97;5098591;28;20126;-78
2021/06/26 01:57:06;;;;;;;14.80;9.32;;;;;;;15.32;94.88;99271.38;5091783;28;20055;-78
2021/06/26 01:59:33;;;;;;;;;;;;;;;15.30;94.85;99268.03;5092051;28;20055;-78
2021/06/26 02:02:00;;;;;;;12.68;8.65;;;;;;;15.16;94.73;99238.97;5091559;28;19973;-78
2021/06/26 02:04:27;;;;;;;15.30;8.93;;;;;;;15.11;95.74;99236.88;5090607;28;20051;-78
2021/06/26 02:06:53;;;;;;;14.05;9.07;;;;;;;15.13;96.30;99253.09;5091090;28;20101;-78
2021/06/26 02:09:20;;;;;;;19.55;8.85;;;;;;;15.24;96.00;99266.16;5086869;28;20067;-78
2021/06/26 02:11:47;;;;;;;17.60;9.05;;;;;;;15.04;96.63;99256.06;5091450;28;20078;-78
2021/06/26 02:14:15;;;;;;;13.10;8.15;;;;;;;15.08;96.70;99252.91;5090572;28;20055;-78
2021/06/26 02:16:42;;;;;;;14.25;8.93;;;;;;;15.12;96.31;99248.69;5073670;28;20048;-78
2021/06/26 02:19:09;;;;;;;15.68;10.38;;;;;;;15.29;95.90;99268.25;5091335;28;20056;-78
2021/06/26 02:21:36;;;;;;;13.65;9.57;;;;;;;15.26;95.49;99269.50;5105319;28;20495;-78
2021/06/26 02:24:03;;;;;;;17.13;9.38;;;;;;;15.19;96.00;99263.19;5089388;28;20044;-79
2021/06/26 02:26:30;;;;;;;14.43;10.52;;;;;;;15.29;95.12;99260.03;5102171;28;20043;-78
2021/06/26 02:28:56;;;;;;;19.30;9.23;;;;;;;15.37;94.76;99274.34;5092867;28;20044;-78
2021/06/26 02:31:25;;;;;;;13.60;8.55;;;;;;;15.15;96.00;99259.22;5099296;28;20120;-78
2021/06/26 02:33:51;;;;;;;14.98;8.25;;;;;;;15.19;95.90;99268.66;5100229;28;20052;-79
2021/06/26 02:36:18;;;;;;;11.70;9.25;;;;;;;15.28;95.88;99278.38;5095172;28;20040;-78
2021/06/26 02:38:45;;;;;;;10.85;9.40;;;;;;;15.27;95.68;99281.31;5100333;28;20052;-78
2021/06/26 02:41:11;;;;;;;11.10;9.10;;;;;;;15.06;96.13;99264.06;5086008;28;20499;-78
2021/06/26 02:43:38;;;;;;;14.93;8.82;;;;;;;15.27;95.87;99278.59;5091967;28;20245;-78
2021/06/26 02:46:05;;;;;;;12.70;8.98;;;;;;;15.17;96.27;99281.75;5090463;28;20051;-78
2021/06/26 02:48:33;;;;;;;14.68;8.43;;;;;;;15.25;96.39;99280.66;5091225;28;20493;-78
2021/06/26 02:51:00;;;;;;;15.30;9.82;;;;;;;15.22;95.98;99260.06;5090612;28;20077;-78
2021/06/26 02:53:27;;;;;;;15.15;9.38;;;;;;;15.12;96.53;99257.72;5094652;28;20044;-78
2021/06/26 02:55:56;;;;;;;11.52;8.30;;;;;;;15.22;97.38;99271.00;5096599;28;20379;-78
2021/06/26 02:58:23;;;;;;;12.15;8.85;;;;;;;15.10;96.73;99262.59;5091018;28;20087;-78
2021/06/26 03:00:50;;;;;;;14.27;8.80;;;;;;;15.13;96.47;99255.81;5090695;28;20044;-78
2021/06/26 03:03:17;;;;;;;15.20;9.23;;;;;;;15.10;96.77;99239.81;5090898;28;20048;-78
2021/06/26 03:05:45;;;;;;;16.45;9.48;;;;;;;15.16;96.36;99261.75;5090344;28;20059;-78
2021/06/26 03:08:12;;;;;;;16.75;9.68;;;;;;;15.16;96.52;99252.66;5098027;28;20045;-78
2021/06/26 03:10:38;;;;;;;14.70;9.07;;;;;;;15.09;97.85;99260.06;5095206;28;20282;-78
2021/06/26 03:13:05;;;;;;;12.57;9.18;;;;;;;15.15;97.48;99261.94;5094412;28;20040;-78
2021/06/26 03:15:33;;;;;;;15.15;9.60;;;;;;;15.07;97.70;99251.19;5091061;28;20051;-78
2021/06/26 03:18:00;;;;;;;14.20;8.88;;;;;;;15.07;98.01;99252.06;5111336;28;20079;-78
2021/06/26 03:20:27;;;;;;;12.90;9.30;;;;;;;15.15;97.49;99267.44;5100220;28;20048;-78
2021/06/26 03:22:55;;;;;;;14.40;9.70;;;;;;;15.00;97.61;99245.75;5107600;28;20403;-78
2021/06/26 03:25:22;;;;;;;18.77;10.60;;;;;;;15.09;98.00;99262.81;5103823;28;20047;-78
2021/06/26 03:27:49;;;;;;;21.92;9.95;;;;;;;15.15;97.73;99272.91;5094477;28;20534;-78
2021/06/26 03:30:17;;;;;;;18.33;9.27;;;;;;;15.21;97.47;99267.41;5091772;28;20047;-78
2021/06/26 03:32:44;;;;;;;16.83;9.57;;;;;;;15.22;97.52;99271.00;5094321;28;20052;-78
2021/06/26 03:35:12;;;;;;;15.63;9.13;;;;;;;15.27;97.43;99265.72;5093706;28;20048;-78
2021/06/26 03:37:38;;;;;;;17.38;9.98;;;;;;;15.20;96.82;99248.44;5094083;28;20055;-78
2021/06/26 03:40:08;;;;;;;17.13;9.80;;;;;;;15.12;97.22;99248.69;5102673;28;20063;-78
2021/06/26 03:42:35;;;;;;;20.08;9.60;;;;;;;15.06;97.72;99272.28;5094000;28;20048;-78
2021/06/26 03:45:02;;;;;;;13.23;8.98;;;;;;;15.05;98.23;99256.88;5089946;28;20048;-78
2021/06/26 03:47:29;;;;;;;15.63;8.80;;;;;;;15.13;97.59;99251.22;5073642;28;20492;-78
2021/06/26 03:49:56;;;;;;;12.80;9.25;;;;;;;15.30;96.20;99273.50;5084959;28;20060;-78
2021/06/26 03:52:22;;;;;;;16.67;9.63;;;;;;;15.21;95.85;99250.16;5073732;28;20076;-78
2021/06/26 03:54:49;;;;;;;20.02;10.30;;;;;;;15.16;96.67;99261.75;5078446;28;20044;-78
2021/06/26 03:57:18;;;;;;;12.65;9.07;;;;;;;15.24;97.52;99276.28;5093716;28;20442;-78
2021/06/26 03:59:44;;;;;;;10.82;8.77;;;;;;;15.12;97.84;99252.25;5093584;28;20044;-77
2021/06/26 04:02:11;;;;;;;12.70;9.60;;;;;;;15.21;96.70;99261.94;5097986;28;20044;-78
2021/06/26 04:04:38;;;;;;;13.88;10.20;;;;;;;15.27;96.19;99267.63;5086711;28;20496;-78
2021/06/26 04:07:06;;;;;;;15.85;9.52;;;;;;;15.32;95.98;99271.38;5105464;28;20055;-78
2021/06/26 04:09:33;;;;;;;14.00;10.32;;;;;;;15.22;96.46;99277.31;5100884;28;20052;-78
2021/06/26 04:11:59;;;;;;;14.15;9.73;;;;;;;15.16;95.77;99260.88;5093345;28;20056;-78
2021/06/26 04:14:27;;;;;;;17.17;10.05;;;;;;;15.30;96.24;99258.97;5092175;28;20044;-78
2021/06/26 04:16:54;;;;;;;14.27;9.20;;;;;;;15.31;95.08;99266.13;5093463;28;20052;-78
2021/06/26 04:19:21;;;;;;;15.32;9.18;;;;;;;15.35;94.88;99264.66;5083355;28;20040;-78
2021/06/26 04:21:48;;;;;;;17.73;9.18;;;;;;;15.38;95.46;99267.78;5072962;28;20070;-78
2021/06/26 04:24:15;;;;;;;17.05;9.27;;;;;;;15.35;93.68;99256.44;5092481;28;20044;-78
2021/06/26 04:26:42;;;;;;;15.77;9.57;;;;;;;15.53;94.52;99264.81;5092418;28;20556;-78
2021/06/26 04:29:09;;;;;;;14.07;9.02;;;;;;;15.50;94.78;99246.06;5093541;28;20051;-78
2021/06/26 04:31:37;;;;;;;16.50;9.68;;;;;;;15.74;94.03;99271.09;5092450;28;20048;-78
2021/06/26 04:34:04;;;;;;;14.75;9.35;;;;;;;15.84;93.07;99260.53;5093657;28;20473;-78
2021/06/26 04:36:30;;;;;;;14.57;9.05;;;;;;;15.92;91.80;99265.75;5091470;28;20047;-78
2021/06/26 04:38:57;;;;;;;13.00;9.20;;;;;;;15.92;91.04;99249.31;5092986;28;20052;-78
2021/06/26 04:41:24;;;;;;;12.63;9.10;;;;;;;16.06;89.74;99262.97;5092968;28;20059;-78
2021/06/26 04:43:51;;;;;;;14.13;9.13;;;;;;;16.29;88.57;99273.41;5092425;28;20048;-78
2021/06/26 04:46:18;;;;;;;13.60;9.00;;;;;;;15.94;90.06;99251.84;5092580;28;20552;-78
2021/06/26 04:48:46;;;;;;;16.05;9.38;;;;;;;16.02;90.87;99272.72;5092529;28;20055;-78
2021/06/26 04:51:13;;;;;;;17.55;8.85;;;;;;;15.98;90.99;99274.19;5095547;28;20048;-78
2021/06/26 04:53:40;;;;;;;15.35;9.07;;;;;;;16.02;90.34;99264.47;5078144;28;20501;-78
2021/06/26 04:56:07;;;;;;;14.13;8.35;;;;;;;16.03;90.82;99268.88;5092212;28;20085;-78
2021/06/26 04:58:34;;;;;;;16.00;11.05;;;;;;;15.93;92.44;99275.69;5103105;28;20055;-78
2021/06/26 05:01:01;;;;;;;15.02;9.13;;;;;;;15.90;92.32;99273.38;5092625;28;20137;-78
2021/06/26 05:03:28;;;;;;;16.02;8.70;;;;;;;15.91;92.37;99277.81;5092147;28;20048;-78
2021/06/26 05:05:58;;;;;;;20.48;9.10;;;;;;;16.04;92.35;99284.28;5092249;28;20696;-77
2021/06/26 05:08:25;;;;;;;12.30;8.93;;;;;;;16.17;92.23;99277.88;5096576;28;20043;-79
2021/06/26 05:10:52;;;;;;;16.50;10.13;;;;;;;16.13;90.89;99272.00;5098741;28;20060;-78
2021/06/26 05:13:19;;;;;;;16.00;8.45;;;;;;;16.26;89.80;99271.94;5092171;28;20048;-78
2021/06/26 05:15:46;;;;;;;10.27;8.75;;;;;;;16.11;91.69;99274.13;5074998;28;20044;-78
2021/06/26 05:18:13;;;;;;;12.40;9.00;;;;;;;16.20;91.67;99280.19;5092180;28;20055;-78
2021/06/26 05:20:40;;;;;;;18.75;9.35;;;;;;;16.21;91.38;99260.81;5102145;28;20039;-78
2021/06/26 05:23:12;;;;;;;19.13;9.88;;;;;;;16.33;91.41;99285.59;5091403;28;20056;-78
2021/06/26 05:25:39;;;;;;;14.85;9.82;;;;;;;16.36;92.62;99274.19;5086136;28;20126;-79
2021/06/26 05:28:06;;;;;;;12.43;9.05;;;;;;;16.39;91.53;99272.91;5091885;28;20044;-78
2021/06/26 05:30:32;;;;;;;23.40;12.02;;;;;;;16.54;91.79;99278.94;5091940;28;20131;-78
2021/06/26 05:32:59;;;;;;;15.23;10.00;;;;;;;16.72;90.30;99286.41;5091728;28;20545;-78
2021/06/26 05:35:26;;;;;;;13.95;9.25;;;;;;;16.75;90.29;99283.22;5091691;28;20052;-78
2021/06/26 05:37:53;;;;;;;15.23;10.13;;;;;;;16.76;89.63;99278.59;5091868;28;20048;-78
2021/06/26 05:40:21;;;;;;;17.00;10.00;;;;;;;16.99;86.96;99270.59;5091712;28;20523;-78
2021/06/26 05:42:48;;;;;;;14.80;9.75;;;;;;;16.91;87.44;99279.13;5086769;28;20301;-78
2021/06/26 05:45:15;;;;;;;12.45;9.32;;;;;;;16.99;86.85;99275.28;5091042;28;20553;-78
2021/06/26 05:47:42;;;;;;;10.60;8.63;;;;;;;17.05;86.76;99270.78;5091823;28;20078;-78
2021/06/26 05:50:10;;;;;;;13.43;9.38;;;;;;;17.30;85.01;99273.53;5091870;28;20044;-78
2021/06/26 05:52:45;;;;;;;11.73;9.35;;;;;;;17.68;81.90;99278.81;5091230;28;20487;-78
2021/06/26 05:55:12;;;;;;;13.90;9.10;;;;;;;18.12;80.94;99280.66;5106066;28;20051;-78
2021/06/26 05:57:44;;;;;;;15.57;9.15;;;;;;;18.26;80.56;99293.19;5104548;28;20051;-78
2021/06/26 06:00:12;;;;;;;10.57;8.52;;;;;;;18.32;79.31;99273.00;5073571;28;20045;-79
2021/06/26 06:02:39;;;;;;;11.05;8.43;;;;;;;18.31;78.96;99281.47;5073233;28;20051;-78
2021/06/26 06:05:08;;;;;;;10.30;7.97;;;;;;;18.05;79.31;99275.25;5072902;28;20044;-78
2021/06/26 06:07:36;;;;;;;15.88;8.45;;;;;;;18.29;79.67;99284.47;5111110;28;20052;-78
2021/06/26 06:10:03;;;;;;;14.90;8.50;;;;;;;18.36;78.39;99276.94;5111889;28;20082;-78
2021/06/26 06:12:30;;;;;;;10.20;7.97;;;;;;;18.39;77.27;99265.47;5096324;28;20411;-79
2021/06/26 06:14:58;;;;;;;15.55;8.55;;;;;;;18.93;75.62;99290.31;5073596;28;20492;-78
2021/06/26 06:17:25;;;;;;;10.20;7.60;;;;;;;19.49;72.95;99290.00;5085117;28;20052;-78
2021/06/26 06:19:52;;;;;;;11.63;8.32;;;;;;;19.72;72.39;99282.78;5091421;28;20059;-78
2021/06/26 06:22:19;;;;;;;21.90;8.23;;;;;;;20.17;69.77;99268.28;5095103;28;20437;-78
2021/06/26 06:24:45;;;;;;;8.32;6.55;;;;;;;20.60;67.57;99282.66;5111798;28;20051;-78
2021/06/26 06:27:12;;;;;;;11.52;7.15;;;;;;;21.31;65.79;99277.53;5111660;28;20043;-78
2021/06/26 06:29:39;;;;;;;8.20;6.05;;;;;;;22.05;62.40;99281.91;5085783;28;20052;-78
2021/06/26 06:32:08;;;;;;;10.20;6.88;;;;;;;22.10;60.39;99276.44;5071285;28;20053;-78
2021/06/26 06:34:35;;;;;;;7.68;6.43;;;;;;;22.19;59.21;99276.81;5088760;28;20055;-78
2021/06/26 06:37:02;;;;;;;10.48;8.13;;;;;;;22.42;58.77;99285.97;5112219;28;20063;-78
2021/06/26 06:39:31;;;;;;;8.65;6.55;;;;;;;22.52;57.69;99271.38;5107515;28;20443;-79
2021/06/26 06:41:58;;;;;;;9.15;6.95;;;;;;;22.41;57.60;99274.03;5091601;28;20051;-79
2021/06/26 06:44:25;;;;;;;11.90;7.07;;;;;;;22.30;58.35;99285.25;5085289;28;20048;-80
2021/06/26 06:46:53;;;;;;;10.35;6.57;;;;;;;22.14;59.95;99282.28;5110674;28;20623;-79
2021/06/26 06:49:25;;;;;;;7.45;5.68;;;;;;;22.06;60.09;99272.50;5071596;28;20141;-79
2021/06/26 06:51:52;;;;;;;8.68;6.20;;;;;;;22.06;59.90;99275.28;5071309;28;20060;-79
2021/06/26 06:54:18;;;;;;;10.95;6.47;;;;;;;22.08;57.70;99288.84;5098986;28;20321;-79
2021/06/26 06:56:48;;;;;;;6.40;5.47;;;;;;;21.92;58.38;99283.13;5115611;28;20078;-78
2021/06/26 06:59:15;;;;;;;7.90;5.35;;;;;;;21.88;59.03;99279.19;5104744;28;20071;-79
2021/06/26 07:01:44;;;;;;;11.60;6.53;;;;;;;21.52;58.56;99273.16;5095192;28;20526;-78
2021/06/26 07:04:14;;;;;;;6.72;5.55;;;;;;;21.59;57.72;99289.59;5097443;28;20415;-78
2021/06/26 07:06:45;;;;;;;5.68;4.78;;;;;;;22.45;56.13;99285.47;5078279;28;20106;-79
2021/06/26 07:09:18;;;;;;;9.50;5.20;;;;;;;22.25;55.31;99267.47;5077095;28;20055;-79
2021/06/26 07:11:46;;;;;;;6.75;5.13;;;;;;;22.27;54.50;99283.84;5114833;28;20052;-79
2021/06/26 07:14:13;;;;;;;10.90;5.55;;;;;;;22.53;54.36;99273.06;5111982;28;20100;-79
2021/06/26 07:16:40;;;;;;;7.13;4.75;;;;;;;23.00;53.78;99279.88;5112496;28;20043;-79
2021/06/26 07:19:07;;;;;;;9.55;5.10;;;;;;;23.42;50.74;99259.72;5116733;28;20127;-79
2021/06/26 07:21:33;;;;;;;6.40;4.47;;;;;;;23.50;50.68;99261.97;5116270;28;20134;-79
2021/06/26 07:24:03;;;;;;;6.93;5.00;;;;;;;24.13;48.46;99270.41;5099773;28;20506;-79
2021/06/26 07:26:30;;;;;;;9.85;5.50;;;;;;;24.48;45.35;99274.38;5075743;28;20078;-79
2021/06/26 07:28:58;;;;;;;5.60;4.22;;;;;;;24.33;45.65;99275.19;5076018;28;20048;-79
2021/06/26 07:31:25;;;;;;;7.68;5.82;;;;;;;24.67;44.91;99271.94;5075366;28;20496;-79
2021/06/26 07:33:51;;;;;;;6.97;4.90;;;;;;;24.94;46.12;99254.16;5090989;28;20384;-79
2021/06/26 07:36:18;;;;;;;5.60;4.28;;;;;;;24.94;45.55;99251.38;5116314;28;20483;-80
2021/06/26 07:38:45;;;;;;;5.88;4.97;;;;;;;24.70;44.89;99256.66;5094752;28;20046;-80
2021/06/26 07:41:14;;;;;;;5.75;4.65;;;;;;;24.54;46.91;99266.91;5075690;28;20052;-79
2021/06/26 07:43:41;;;;;;;10.43;4.75;;;;;;;24.26;47.71;99252.38;5085985;28;20058;-79
2021/06/26 07:46:08;;;;;;;5.40;4.68;;;;;;;23.91;48.02;99255.84;5095665;28;20048;-80
2021/06/26 07:48:34;;;;;;;7.53;5.25;;;;;;;23.78;49.62;99246.03;5075503;28;20049;-78
2021/06/26 07:51:01;;;;;;;8.95;4.55;;;;;;;24.32;48.67;99261.56;5076309;28;20040;-80
2021/06/26 07:53:28;;;;;;;8.65;5.20;;;;;;;24.29;46.98;99267.66;5116367;28;20051;-79
2021/06/26 07:55:58;;;;;;;9.48;5.20;;;;;;;24.98;46.86;99246.13;5106828;28;20059;-79
2021/06/26 07:58:28;;;;;;;8.05;4.45;;;;;;;25.48;46.44;99263.91;5116287;28;20052;-79
2021/06/26 08:00:55;;;;;;;;;;;;;;;25.55;46.67;99250.53;5115575;28;20048;-79
2021/06/26 08:03:23;;;;;;;5.47;3.70;;;;;;;25.56;43.36;99229.09;5097443;28;20415;-79
2021/06/26 08:05:50;;;;;;;3.40;3.08;;;;;;;25.29;44.12;99233.00;5094525;28;20048;-79
2021/06/26 08:08:21;;;;;;;6.25;3.47;;;;;;;25.01;47.15;99237.22;5106578;28;20043;-79
2021/06/26 08:10:48;;;;;;;6.63;3.75;;;;;;;25.05;45.83;99235.53;5111451;28;20059;-78
2021/06/26 08:13:15;;;;;;;5.22;4.45;;;;;;;25.43;44.73;99231.34;5115698;28;20491;-80
2021/06/26 08:15:46;;;;;;;5.30;4.07;;;;;;;25.53;47.86;99229.66;5101621;28;20053;-78
2021/06/26 08:18:13;;;;;;;4.78;3.40;;;;;;;25.61;43.01;99223.53;5095422;28;20052;-79
2021/06/26 08:20:41;;;;;;;5.10;4.10;;;;;;;25.54;44.76;99237.72;5095195;28;20506;-78
2021/06/26 08:23:08;;;;;;;3.42;3.13;;;;;;;25.55;47.75;99214.34;5094944;28;20056;-78
2021/06/26 08:25:36;;;;;;;5.72;4.20;;;;;;;25.59;44.24;99226.59;5102155;28;20122;-79
2021/06/26 08:28:04;;;;;;;6.38;4.00;;;;;;;25.73;46.92;99215.69;5114733;28;20114;-78
2021/06/26 08:30:32;;;;;;;6.03;3.47;;;;;;;25.37;45.13;99223.31;5115681;28;20407;-78
2021/06/26 08:33:00;;;;;;;7.45;4.53;;;;;;;25.36;46.50;99221.63;5114748;28;20108;-78
2021/06/26 08:35:30;;;;;;;5.70;4.28;;;;;;;25.40;45.85;99218.00;5112364;28;20498;-79
2021/06/26 08:37:56;;;;;;;8.13;4.78;;;;;;;25.31;46.03;99199.38;5112939;28;20116;-78
2021/06/26 08:40:23;;;;;;;7.00;4.18;;;;;;;25.27;47.15;99221.34;5113534;28;20055;-79
2021/06/26 08:42:52;;;;;;;4.53;3.90;;;;;;;25.01;45.83;99213.03;5112331;28;20044;-79
2021/06/26 08:45:21;;;;;;;5.13;4.25;;;;;;;25.48;44.80;99211.03;5085057;28;20052;-78
2021/06/26 08:47:55;;;;;;;6.13;4.03;;;;;;;25.83;42.07;99200.88;5107233;28;20108;-79
2021/06/26 08:50:26;;;;;;;4.10;3.70;;;;;;;25.78;44.11;99204.50;5098245;28;20088;-79
2021/06/26 08:52:53;;;;;;;5.53;3.90;;;;;;;25.77;42.62;99214.00;5092832;28;20087;-78
2021/06/26 08:55:20;;;;;;;4.82;2.95;;;;;;;25.80;44.11;99201.44;5100695;28;20490;-78
2021/06/26 08:57:48;;;;;;;5.38;3.83;;;;;;;26.19;43.99;99202.69;5112960;28;20051;-78
2021/06/26 09:00:18;;;;;;;3.70;3.38;;;;;;;25.65;42.06;99218.22;5112577;28;20047;-78
2021/06/26 09:02:47;;;;;;;5.53;3.97;;;;;;;25.64;45.52;99222.97;5071934;28;20113;-78
2021/06/26 09:05:27;;;;;;;5.90;4.28;;;;;;;25.43;45.08;99209.09;5072096;28;20111;-78
2021/06/26 09:07:53;;;;;;;;;;;;;;;25.51;45.92;99217.97;5107626;28;20047;-78
2021/06/26 09:10:22;;;;;;;7.22;4.63;;;;;;;25.63;44.51;99199.00;5112890;28;19940;-80
2021/06/26 09:12:51;;;;;;;4.93;4.40;;;;;;;25.30;43.49;99200.50;5098370;28;20131;-79
2021/06/26 09:15:23;;;;;;;5.63;4.22;;;;;;;24.99;45.77;99200.50;5091468;28;20048;-78
2021/06/26 09:17:50;;;;;;;5.35;4.70;;;;;;;25.67;43.27;99202.03;5098836;28;20051;-78
2021/06/26 09:20:22;;;;;;;7.00;4.97;;;;;;;26.03;45.21;99201.94;5075032;28;20057;-78
2021/06/26 09:22:52;;;;;;;5.68;4.78;;;;;;;26.56;43.96;99204.97;5074558;28;20055;-79
2021/06/26 09:25:30;;;;;;;5.05;4.50;;;;;;;26.17;41.42;99204.94;5112319;28;20130;-79
2021/06/26 09:27:58;;;;;;;6.32;5.00;;;;;;;26.07;43.03;99212.22;5112721;28;20052;-78
2021/06/26 09:30:34;;;;;;;5.07;4.63;;;;;;;25.95;43.72;99190.25;5093603;28;20048;-78
2021/06/26 09:33:04;;;;;;;7.80;5.45;;;;;;;26.03;41.48;99211.13;5092687;28;20048;-78
2021/06/26 09:35:31;;;;;;;5.85;5.20;;;;;;;25.63;42.47;99203.75;5094188;28;20072;-78
2021/06/26 09:38:05;;;;;;;6.65;4.97;;;;;;;25.54;44.15;99193.19;5074709;28;20125;-78
2021/06/26 09:40:31;;;;;;;7.75;5.18;;;;;;;25.73;44.36;99204.53;5097606;28;20048;-78
2021/06/26 09:42:58;;;;;;;6.95;5.22;;;;;;;25.78;42.96;99190.59;5112470;28;20108;-78
2021/06/26 09:45:25;;;;;;;8.63;4.85;;;;;;;25.88;42.01;99195.31;5104484;28;20044;-78
2021/06/26 09:47:54;;;;;;;5.65;4.90;;;;;;;26.25;42.02;99182.03;5103733;28;20051;-78
2021/06/26 09:50:24;;;;;;;6.20;4.18;;;;;;;26.31;42.19;99194.81;5112109;28;20051;-78
2021/06/26 09:52:53;;;;;;;6.07;5.07;;;;;;;25.79;46.38;99183.91;5106295;28;20138;-78
2021/06/26 09:55:24;;;;;;;6.25;5.20;;;;;;;25.39;45.04;99198.81;5092251;28;20044;-79
2021/06/26 09:57:53;;;;;;;5.80;5.10;;;;;;;25.10;45.75;99177.13;5105592;28;20055;-78
2021/06/26 10:00:22;;;;;;;6.07;5.40;;;;;;;25.41;44.44;99194.63;5111872;28;20134;-79
2021/06/26 10:02:48;;;;;;;6.05;4.85;;;;;;;25.38;43.05;99192.41;5099430;28;20063;-78
2021/06/26 10:05:16;;;;;;;7.10;4.55;;;;;;;25.68;43.74;99173.94;5104967;28;20048;-80
2021/06/26 10:07:45;;;;;;;5.38;4.78;;;;;;;25.55;43.51;99180.13;5092051;28;20056;-79
2021/06/26 10:10:13;;;;;;;5.28;4.78;;;;;;;25.45;43.62;99161.50;5090712;28;20148;-80
2021/06/26 10:12:42;;;;;;;5.40;4.90;;;;;;;25.65;44.22;99190.38;5092634;28;20056;-77
2021/06/26 10:15:11;;;;;;;5.28;4.63;;;;;;;25.61;43.96;99174.25;5090833;28;20094;-79
2021/06/26 10:17:38;;;;;;;5.47;4.30;;;;;;;25.67;45.63;99166.72;5091466;28;20545;-78
2021/06/26 10:20:17;;;;;;;7.15;5.20;;;;;;;25.84;43.47;99157.19;5091790;28;20044;-79
2021/06/26 10:22:47;;;;;;;6.82;4.60;;;;;;;25.72;42.67;99144.41;5091490;28;20127;-78
2021/06/26 10:25:14;;;;;;;6.00;4.85;;;;;;;26.09;41.95;99156.22;5102331;28;20062;-78
2021/06/26 10:27:42;;;;;;;4.68;3.95;;;;;;;26.26;40.27;99162.25;5085873;28;20074;-79
2021/06/26 10:30:13;;;;;;;5.20;4.32;;;;;;;25.77;42.15;99165.81;5088468;28;20040;-78
2021/06/26 10:32:52;;;;;;;5.63;4.47;;;;;;;25.68;44.76;99148.06;5115936;28;20047;-78
2021/06/26 10:35:22;;;;;;;6.85;5.60;;;;;;;25.59;42.03;99154.22;5110743;28;20122;-78
2021/06/26 10:38:03;;;;;;;5.55;4.05;;;;;;;25.31;44.61;99130.66;5095244;28;20056;-78
2021/06/26 10:40:41;;;;;;;8.85;4.50;;;;;;;25.55;42.97;99155.06;5099588;28;20513;-78
2021/06/26 10:43:18;;;;;;;5.20;4.07;;;;;;;26.06;42.12;99131.72;5115970;28;20047;-78
2021/06/26 10:45:46;;;;;;;5.13;4.63;;;;;;;26.39;41.71;99140.41;5081085;28;20456;-78
2021/06/26 10:48:21;;;;;;;5.95;4.90;;;;;;;26.60;42.07;99138.28;5115400;28;20048;-78
2021/06/26 10:50:51;;;;;;;5.68;4.35;;;;;;;26.55;44.41;99127.19;5115615;28;20047;-78
2021/06/26 10:53:26;;;;;;;4.80;4.30;;;;;;;26.93;42.48;99141.38;5098972;28;20105;-78
2021/06/26 10:56:05;;;;;;;5.22;4.68;;;;;;;27.09;42.83;99128.94;5094964;28;20059;-78
2021/06/26 10:58:37;;;;;;;4.45;4.05;;;;;;;27.57;41.87;99136.50;5093487;28;20197;-78
2021/06/26 11:01:18;;;;;;;5.03;3.65;;;;;;;27.91;40.20;99141.09;5074736;28;20106;-78
2021/06/26 11:03:45;;;;;;;4.50;3.63;;;;;;;27.77;42.07;99129.00;5097037;28;20384;-78
2021/06/26 11:06:18;;;;;;;4.95;3.78;;;;;;;27.67;39.75;99127.16;5115070;28;20414;-78
2021/06/26 11:08:56;;;;;;;4.28;3.83;;;;;;;27.44;40.20;99134.44;5111262;28;20058;-79
2021/06/26 11:11:28;;;;;;;4.15;3.67;;;;;;;27.59;37.46;99139.81;5095327;28;20055;-78
2021/06/26 11:14:16;;;;;;;4.72;3.78;;;;;;;27.59;39.55;99136.22;5094543;28;20094;-78
2021/06/26 11:16:47;;;;;;;3.85;3.42;;;;;;;27.06;42.35;99131.50;5093745;28;20053;-78
2021/06/26 11:19:14;;;;;;;6.07;4.13;;;;;;;26.30;41.92;99117.91;5094572;28;20048;-78
2021/06/26 11:21:43;;;;;;;5.07;4.57;;;;;;;25.98;44.16;99138.69;5074297;28;20614;-78
2021/06/26 11:24:11;;;;;;;5.35;4.85;;;;;;;25.83;45.14;99149.94;5074054;28;20089;-78
2021/06/26 11:26:54;;;;;;;4.43;4.03;;;;;;;25.70;43.08;99137.44;5099486;28;20047;-78
2021/06/26 11:29:28;;;;;;;4.85;4.28;;;;;;;25.75;43.32;99149.41;5095697;28;20054;-78
2021/06/26 11:31:55;;;;;;;5.25;4.20;;;;;;;25.34;43.14;99137.63;5101757;28;20047;-78
2021/06/26 11:34:22;;;;;;;4.75;4.22;;;;;;;25.76;42.82;99133.56;5085403;28;20049;-78